Time;durP1;ratioP1;P1;durP2;ratioP2;P2;SDS_P1;SDS_P2;PMS_P1;PMS_P2;Temp;Humidity;BMP_temperature;BMP_pressure;BME280_temperature;BME280_humidity;BME280_pressure;Samples;Min_cycle;Max_cycle;Signal;HPM_P1;HPM_P2
2023/05/22 00:00:35;;;;;;;8.45;4.82;;;17.80;90.20;;;;;;5075599;28;20228;-73
2023/05/22 00:03:27;;;;;;;6.70;5.32;;;17.80;91.40;;;;;;5080937;28;20591;-73
2023/05/22 00:06:17;;;;;;;7.03;4.80;;;17.80;90.70;;;;;;5073342;28;20235;-72
2023/05/22 00:09:06;;;;;;;7.05;4.82;;;17.70;90.80;;;;;;5074748;28;20234;-73
2023/05/22 00:11:54;;;;;;;7.20;5.13;;;17.60;90.80;;;;;;5081260;28;20317;-73
2023/05/22 00:14:43;;;;;;;8.95;5.05;;;17.60;91.80;;;;;;5082197;28;20227;-73
2023/05/22 00:17:35;;;;;;;8.63;5.20;;;17.60;91.60;;;;;;5069631;28;20231;-72
2023/05/22 00:20:26;;;;;;;6.22;4.88;;;17.50;90.40;;;;;;5079923;28;20246;-71
2023/05/22 00:23:16;;;;;;;10.23;5.57;;;17.40;90.80;;;;;;5082861;28;20223;-72
2023/05/22 00:26:04;;;;;;;9.07;5.32;;;17.30;90.70;;;;;;5086811;28;20234;-73
2023/05/22 00:28:54;;;;;;;7.68;5.13;;;17.20;91.10;;;;;;5071366;28;20978;-74
2023/05/22 00:31:42;;;;;;;7.30;5.32;;;17.20;91.70;;;;;;5079751;28;20230;-73
2023/05/22 00:34:32;;;;;;;7.75;5.35;;;17.20;91.20;;;;;;5078170;28;20732;-73
2023/05/22 00:37:26;;;;;;;10.05;5.47;;;17.10;91.60;;;;;;5084669;28;20211;-72
2023/05/22 00:40:15;;;;;;;8.13;5.10;;;17.10;91.60;;;;;;5079022;28;20239;-73
2023/05/22 00:43:07;;;;;;;7.57;5.00;;;17.20;91.50;;;;;;5071313;28;20799;-73
2023/05/22 00:45:57;;;;;;;10.23;5.32;;;17.20;91.60;;;;;;5080637;28;20219;-73
2023/05/22 00:48:48;;;;;;;7.75;5.00;;;17.20;91.40;;;;;;5086182;28;21119;-73
2023/05/22 00:51:36;;;;;;;8.50;5.03;;;17.10;90.50;;;;;;5085557;28;20650;-73
2023/05/22 00:54:28;;;;;;;7.63;5.32;;;17.00;91.10;;;;;;5083865;28;20828;-73
2023/05/22 00:57:17;;;;;;;6.63;5.43;;;17.10;92.20;;;;;;5083156;28;21024;-72
2023/05/22 01:00:09;;;;;;;8.57;5.07;;;17.00;91.30;;;;;;5080824;28;20261;-72
2023/05/22 01:02:59;;;;;;;7.13;5.05;;;17.10;91.80;;;;;;5086251;28;20230;-73
2023/05/22 01:05:49;;;;;;;19.67;5.32;;;17.00;91.60;;;;;;5072704;28;20215;-72
2023/05/22 01:08:37;;;;;;;10.98;5.07;;;16.90;91.50;;;;;;5086789;28;20274;-73
2023/05/22 01:11:35;;;;;;;11.80;5.28;;;17.00;91.50;;;;;;5087201;28;20273;-72
2023/05/22 01:14:31;;;;;;;8.25;4.78;;;16.80;91.60;;;;;;5076378;28;20243;-72
2023/05/22 01:17:27;;;;;;;10.15;5.15;;;16.90;92.10;;;;;;5074471;28;20230;-72
2023/05/22 01:20:24;;;;;;;9.93;5.07;;;16.70;91.20;;;;;;5087465;28;20253;-72
2023/05/22 01:23:56;;;;;;;7.93;5.18;;;16.80;91.30;;;;;;5075455;28;20232;-70
2023/05/22 01:27:27;;;;;;;6.57;5.22;;;16.70;91.80;;;;;;5105933;27;20322;-72
2023/05/22 01:30:33;;;;;;;9.95;5.40;;;16.80;92.80;;;;;;5097995;27;20287;-72
2023/05/22 01:33:24;;;;;;;9.05;5.65;;;16.80;93.00;;;;;;5074102;28;20224;-71
2023/05/22 01:36:17;;;;;;;6.78;4.85;;;16.80;92.20;;;;;;5083571;28;20685;-72
2023/05/22 01:39:07;;;;;;;6.93;4.75;;;16.70;93.30;;;;;;5085742;28;20219;-72
2023/05/22 01:41:57;;;;;;;8.38;5.65;;;16.70;93.30;;;;;;5084799;28;20602;-72
2023/05/22 01:44:47;;;;;;;6.63;5.00;;;16.70;93.20;;;;;;5079045;28;20224;-73
2023/05/22 01:47:38;;;;;;;8.60;5.40;;;16.60;92.30;;;;;;5086499;28;20306;-71
2023/05/22 01:50:27;;;;;;;8.23;4.95;;;16.60;92.80;;;;;;5084768;28;20725;-71
2023/05/22 01:53:24;;;;;;;11.70;5.18;;;16.60;93.30;;;;;;5077812;28;20223;-73
2023/05/22 01:56:15;;;;;;;9.55;5.47;;;16.50;92.40;;;;;;5083905;28;20227;-70
2023/05/22 01:59:12;;;;;;;9.82;5.60;;;16.40;92.80;;;;;;5074653;28;20224;-71
2023/05/22 02:02:11;;;;;;;6.65;5.05;;;16.40;92.50;;;;;;5077216;28;20224;-71
2023/05/22 02:05:05;;;;;;;7.70;5.13;;;16.50;93.80;;;;;;5082852;28;20223;-72
2023/05/22 02:07:56;;;;;;;6.80;5.07;;;16.50;93.80;;;;;;5084560;28;20234;-73
2023/05/22 02:10:46;;;;;;;7.70;5.57;;;16.50;94.80;;;;;;5074815;28;20224;-72
2023/05/22 02:13:35;;;;;;;10.25;5.15;;;16.40;94.40;;;;;;5075506;28;20227;-72
2023/05/22 02:16:24;;;;;;;9.45;5.45;;;16.40;94.90;;;;;;5083176;28;20245;-71
2023/05/22 02:19:18;;;;;;;10.45;4.82;;;16.40;95.40;;;;;;5084051;28;20244;-73
2023/05/22 02:22:12;;;;;;;7.05;5.22;;;16.40;95.10;;;;;;5083154;28;20232;-72
2023/05/22 02:25:01;;;;;;;8.10;6.13;;;16.30;95.00;;;;;;5073504;28;20247;-72
2023/05/22 02:27:51;;;;;;;9.00;5.20;;;16.20;95.30;;;;;;5068876;28;21037;-72
2023/05/22 02:30:41;;;;;;;9.00;5.30;;;16.20;94.90;;;;;;5040095;28;20707;-72
2023/05/22 02:33:29;;;;;;;10.10;5.72;;;16.30;95.20;;;;;;5044384;28;20223;-70
2023/05/22 02:36:18;;;;;;;8.35;5.55;;;16.20;95.80;;;;;;5031489;28;20642;-72
2023/05/22 02:39:09;;;;;;;9.80;5.65;;;16.20;95.60;;;;;;5063400;28;20227;-73
2023/05/22 02:41:58;;;;;;;6.97;4.88;;;16.10;94.70;;;;;;5042572;28;20227;-73
2023/05/22 02:44:47;;;;;;;10.73;5.68;;;16.10;94.40;;;;;;5052661;28;20228;-72
2023/05/22 02:47:36;;;;;;;8.45;5.80;;;16.00;93.60;;;;;;5047925;28;20243;-73
2023/05/22 02:50:25;;;;;;;11.45;6.03;;;15.90;94.60;;;;;;5057077;28;20324;-72
2023/05/22 02:53:16;;;;;;;7.95;5.47;;;15.90;93.80;;;;;;5056674;28;20775;-73
2023/05/22 02:56:07;;;;;;;8.32;5.85;;;15.80;94.10;;;;;;5056836;28;20239;-73
2023/05/22 02:58:56;;;;;;;11.85;5.70;;;16.00;94.20;;;;;;5046523;28;20794;-73
2023/05/22 03:01:47;;;;;;;10.35;5.97;;;16.10;93.90;;;;;;5050199;28;20220;-73
2023/05/22 03:04:37;;;;;;;10.65;5.90;;;16.00;94.00;;;;;;5054682;28;20598;-73
2023/05/22 03:07:28;;;;;;;10.30;6.15;;;16.10;95.10;;;;;;5049713;28;20228;-73
2023/05/22 03:10:17;;;;;;;10.27;5.93;;;16.10;94.20;;;;;;5053326;28;20231;-72
2023/05/22 03:13:08;;;;;;;9.23;5.50;;;15.90;94.20;;;;;;5056854;28;20220;-74
2023/05/22 03:15:58;;;;;;;9.43;5.88;;;16.00;95.10;;;;;;5046907;28;20216;-73
2023/05/22 03:18:50;;;;;;;10.07;6.03;;;15.90;94.30;;;;;;5054298;28;20227;-72
2023/05/22 03:21:39;;;;;;;13.93;7.00;;;16.00;95.00;;;;;;5044969;28;20220;-72
2023/05/22 03:24:28;;;;;;;8.30;5.75;;;16.10;95.30;;;;;;5054102;28;20639;-73
2023/05/22 03:27:17;;;;;;;10.45;5.75;;;16.20;95.70;;;;;;5042680;28;20926;-72
2023/05/22 03:30:10;;;;;;;8.95;5.80;;;16.20;95.10;;;;;;5043206;28;20280;-73
2023/05/22 03:33:01;;;;;;;8.23;6.40;;;16.30;95.20;;;;;;5053290;28;20239;-73
2023/05/22 03:35:50;;;;;;;9.82;6.18;;;16.30;94.60;;;;;;5044096;28;20224;-72
2023/05/22 03:38:38;;;;;;;12.30;7.38;;;16.30;94.20;;;;;;5050936;28;20225;-74
2023/05/22 03:41:27;;;;;;;12.50;7.18;;;16.10;94.40;;;;;;5021525;28;20293;-72
2023/05/22 03:44:16;;;;;;;11.27;6.40;;;16.30;95.50;;;;;;5038239;28;20224;-73
2023/05/22 03:47:07;;;;;;;9.18;5.95;;;16.40;95.10;;;;;;5050870;28;20225;-73
2023/05/22 03:49:55;;;;;;;9.10;5.85;;;16.50;95.30;;;;;;5035276;28;20218;-74
2023/05/22 03:52:44;;;;;;;9.82;5.75;;;16.50;94.40;;;;;;5042612;28;20221;-72
2023/05/22 03:55:33;;;;;;;9.93;5.78;;;16.60;94.80;;;;;;5040691;28;20235;-73
2023/05/22 03:58:24;;;;;;;7.85;5.95;;;16.70;94.80;;;;;;5025563;28;20225;-72
2023/05/22 04:01:13;;;;;;;8.48;4.80;;;16.50;94.70;;;;;;5047537;28;20260;-73
2023/05/22 04:04:04;;;;;;;9.38;5.32;;;16.70;95.10;;;;;;5048306;28;20247;-73
2023/05/22 04:06:53;;;;;;;6.18;5.25;;;16.80;94.70;;;;;;5046881;28;21002;-73
2023/05/22 04:09:42;;;;;;;7.07;5.13;;;16.70;94.50;;;;;;5048198;28;20587;-74
2023/05/22 04:12:31;;;;;;;9.57;5.20;;;16.80;95.00;;;;;;5055863;28;20312;-72
2023/05/22 04:15:20;;;;;;;7.72;4.93;;;16.80;94.90;;;;;;5028536;28;20604;-73
2023/05/22 04:18:10;;;;;;;7.50;4.88;;;16.80;94.70;;;;;;5034243;28;20216;-73
2023/05/22 04:21:01;;;;;;;7.85;5.40;;;17.00;95.20;;;;;;5047194;28;20205;-74
2023/05/22 04:23:50;;;;;;;7.43;5.15;;;17.00;95.20;;;;;;5041345;28;20283;-74
2023/05/22 04:26:39;;;;;;;8.35;4.95;;;17.10;94.60;;;;;;5048032;28;20224;-74
2023/05/22 04:29:35;;;;;;;9.02;5.10;;;17.00;94.40;;;;;;5071400;28;20243;-74
2023/05/22 04:32:23;;;;;;;9.98;5.43;;;17.10;94.60;;;;;;5060658;28;20231;-74
2023/05/22 04:35:12;;;;;;;7.28;5.07;;;17.30;95.90;;;;;;5081986;28;20572;-73
2023/05/22 04:38:05;;;;;;;9.27;5.80;;;17.40;95.50;;;;;;5062422;28;20228;-73
2023/05/22 04:40:54;;;;;;;10.93;5.43;;;17.30;95.30;;;;;;5056548;28;20362;-74
2023/05/22 04:43:43;;;;;;;12.63;5.22;;;17.30;95.10;;;;;;5061483;28;20220;-73
2023/05/22 04:46:33;;;;;;;8.25;5.10;;;17.30;94.40;;;;;;5063285;28;20231;-73
2023/05/22 04:49:23;;;;;;;11.63;5.57;;;17.50;95.20;;;;;;5075026;28;20226;-72
2023/05/22 04:52:12;;;;;;;6.65;4.68;;;17.70;94.70;;;;;;5067371;28;20329;-74
2023/05/22 04:55:02;;;;;;;10.77;4.85;;;17.70;92.00;;;;;;5061342;28;20227;-74
2023/05/22 04:57:55;;;;;;;7.55;4.57;;;17.60;93.20;;;;;;5066476;28;20310;-73
2023/05/22 05:00:44;;;;;;;7.43;4.90;;;17.70;92.90;;;;;;5055895;28;20239;-74
2023/05/22 05:03:34;;;;;;;7.65;4.82;;;18.00;93.10;;;;;;5056703;28;20211;-73
2023/05/22 05:06:23;;;;;;;7.47;4.95;;;18.10;92.30;;;;;;5061683;28;20233;-71
2023/05/22 05:09:13;;;;;;;7.47;5.00;;;18.00;91.80;;;;;;5045937;28;20234;-74
2023/05/22 05:12:03;;;;;;;7.43;5.03;;;18.20;91.90;;;;;;5075430;28;20331;-74
2023/05/22 05:14:52;;;;;;;11.43;5.22;;;18.30;91.40;;;;;;5063544;28;20231;-73
2023/05/22 05:17:41;;;;;;;7.28;4.70;;;18.60;93.70;;;;;;5070326;28;20345;-74
2023/05/22 05:20:31;;;;;;;8.57;4.72;;;18.80;91.70;;;;;;5049955;28;20296;-73
2023/05/22 05:23:21;;;;;;;9.50;5.15;;;18.90;91.30;;;;;;5059414;28;20592;-74
2023/05/22 05:26:09;;;;;;;10.73;4.63;;;19.00;91.10;;;;;;5052572;28;20261;-74
2023/05/22 05:29:00;;;;;;;8.55;4.63;;;19.20;91.60;;;;;;5058312;28;20255;-73
2023/05/22 05:32:00;;;;;;;9.30;5.05;;;20.60;90.80;;;;;;5065533;28;20224;-75
2023/05/22 05:34:53;;;;;;;7.55;4.70;;;21.40;86.70;;;;;;5065741;28;20726;-75
2023/05/22 05:37:57;;;;;;;10.40;4.85;;;21.60;85.50;;;;;;5057709;28;20751;-74
2023/05/22 05:40:47;;;;;;;13.10;5.38;;;20.80;86.00;;;;;;5060813;28;20395;-73
2023/05/22 05:43:37;;;;;;;10.93;5.22;;;20.50;86.90;;;;;;5065264;28;20259;-72
2023/05/22 05:46:30;;;;;;;13.43;5.25;;;20.40;89.60;;;;;;5057808;28;20227;-73
2023/05/22 05:49:20;;;;;;;14.45;5.00;;;20.40;89.20;;;;;;5064042;28;20227;-73
2023/05/22 05:52:09;;;;;;;10.15;4.85;;;20.40;90.50;;;;;;5065030;28;20620;-74
2023/05/22 05:54:59;;;;;;;8.82;4.70;;;20.30;90.50;;;;;;5057213;28;20213;-73
2023/05/22 05:57:49;;;;;;;12.35;4.88;;;20.60;89.20;;;;;;5063573;28;20235;-73
2023/05/22 06:00:45;;;;;;;8.90;4.70;;;21.50;86.50;;;;;;5059615;28;20285;-73
2023/05/22 06:03:35;;;;;;;8.90;4.80;;;21.00;85.40;;;;;;5066140;28;20228;-72
2023/05/22 06:06:35;;;;;;;12.43;4.32;;;21.40;83.50;;;;;;5052469;28;20242;-73
2023/05/22 06:09:44;;;;;;;9.15;4.57;;;21.20;85.40;;;;;;5054434;28;20281;-74
2023/05/22 06:12:54;;;;;;;7.53;4.07;;;21.30;87.40;;;;;;5053842;28;20259;-75
2023/05/22 06:15:43;;;;;;;12.07;4.60;;;21.00;86.30;;;;;;5051009;28;20301;-73
2023/05/22 06:18:32;;;;;;;9.25;4.57;;;21.10;84.00;;;;;;5053633;28;20225;-74
2023/05/22 06:21:23;;;;;;;7.72;5.18;;;20.90;84.50;;;;;;5060817;28;20708;-73
2023/05/22 06:24:12;;;;;;;14.52;4.60;;;20.80;87.20;;;;;;5063860;28;20564;-74
2023/05/22 06:27:02;;;;;;;14.82;4.70;;;20.70;86.10;;;;;;5063486;28;20766;-73
2023/05/22 06:29:51;;;;;;;8.60;4.63;;;21.00;88.10;;;;;;5064282;28;20224;-72
2023/05/22 06:32:40;;;;;;;8.30;4.40;;;20.90;85.60;;;;;;5062976;28;20231;-73
2023/05/22 06:35:31;;;;;;;11.05;3.67;;;21.00;87.00;;;;;;5051869;28;20221;-73
2023/05/22 06:38:21;;;;;;;7.70;4.07;;;20.90;82.20;;;;;;5054981;28;20224;-73
2023/05/22 06:41:10;;;;;;;9.95;4.63;;;21.10;83.50;;;;;;5060537;28;20224;-74
2023/05/22 06:44:00;;;;;;;7.50;3.83;;;21.20;83.20;;;;;;5045093;28;20242;-73
2023/05/22 06:46:50;;;;;;;8.40;3.80;;;21.30;84.00;;;;;;5038946;28;20237;-73
2023/05/22 06:49:43;;;;;;;14.10;4.07;;;21.50;84.40;;;;;;5052698;28;20231;-73
2023/05/22 06:52:32;;;;;;;7.93;3.65;;;21.60;81.20;;;;;;5040121;28;20296;-72
2023/05/22 06:55:24;;;;;;;10.38;4.25;;;21.70;82.10;;;;;;5054879;28;20236;-73
2023/05/22 06:58:27;;;;;;;5.10;3.83;;;21.70;82.50;;;;;;5049041;28;20220;-74
2023/05/22 07:01:17;;;;;;;6.38;3.75;;;21.90;85.80;;;;;;5038507;28;20315;-72
2023/05/22 07:04:21;;;;;;;12.40;4.20;;;22.20;84.50;;;;;;5055482;28;20662;-72
2023/05/22 07:07:17;;;;;;;5.68;3.63;;;22.50;82.00;;;;;;5062166;28;20232;-73
2023/05/22 07:10:07;;;;;;;9.05;3.88;;;22.70;82.20;;;;;;5047531;28;20759;-73
2023/05/22 07:12:57;;;;;;;7.90;3.85;;;22.90;82.40;;;;;;5062531;28;20236;-74
2023/05/22 07:15:46;;;;;;;6.32;3.95;;;23.20;79.00;;;;;;5051311;28;20223;-73
2023/05/22 07:18:35;;;;;;;9.70;3.95;;;23.40;77.60;;;;;;5056096;28;20288;-73
2023/05/22 07:21:24;;;;;;;9.98;3.97;;;23.70;77.10;;;;;;5063396;28;20330;-73
2023/05/22 07:24:15;;;;;;;12.60;5.35;;;23.40;76.40;;;;;;5063561;28;20243;-73
2023/05/22 07:27:05;;;;;;;14.32;4.15;;;23.30;78.90;;;;;;5057254;28;20228;-73
2023/05/22 07:29:56;;;;;;;16.33;4.15;;;23.80;80.50;;;;;;5063930;28;20227;-74
2023/05/22 07:32:48;;;;;;;7.97;3.53;;;24.30;78.50;;;;;;5063991;28;20227;-73
2023/05/22 07:35:39;;;;;;;23.73;4.55;;;24.20;72.10;;;;;;5062249;28;20212;-73
2023/05/22 07:38:29;;;;;;;9.48;3.38;;;24.70;73.50;;;;;;5060078;28;20228;-73
2023/05/22 07:41:22;;;;;;;7.68;3.90;;;25.50;70.30;;;;;;5062144;28;20230;-74
2023/05/22 07:44:12;;;;;;;9.93;3.97;;;26.00;70.30;;;;;;5051908;28;20233;-73
2023/05/22 07:47:03;;;;;;;8.75;3.33;;;26.10;69.30;;;;;;5055216;28;20385;-73
2023/05/22 07:49:52;;;;;;;10.30;4.20;;;26.10;67.10;;;;;;5060838;28;20608;-72
2023/05/22 07:52:41;;;;;;;6.50;3.17;;;26.30;66.50;;;;;;5062273;28;20314;-72
2023/05/22 07:55:31;;;;;;;7.05;3.25;;;26.70;65.60;;;;;;5062924;28;20245;-71
2023/05/22 07:58:22;;;;;;;6.53;3.40;;;26.70;63.50;;;;;;5062321;28;20775;-70
2023/05/22 08:01:12;;;;;;;8.88;3.50;;;27.00;63.60;;;;;;5040984;28;20216;-72
2023/05/22 08:04:02;;;;;;;11.35;3.50;;;27.10;62.00;;;;;;5039203;28;20232;-72
2023/05/22 08:06:52;;;;;;;8.68;3.55;;;27.10;61.90;;;;;;5049356;28;20332;-73
2023/05/22 08:09:44;;;;;;;7.88;3.20;;;26.90;60.80;;;;;;5054365;28;20332;-72
2023/05/22 08:12:33;;;;;;;4.15;3.05;;;26.30;62.20;;;;;;5046579;28;20205;-74
2023/05/22 08:15:22;;;;;;;12.15;3.22;;;26.10;63.90;;;;;;5046215;28;20246;-73
2023/05/22 08:18:11;;;;;;;4.45;2.78;;;25.20;63.00;;;;;;5058547;28;20981;-73
2023/05/22 08:21:02;;;;;;;7.20;2.80;;;25.30;65.70;;;;;;5056645;28;20220;-72
2023/05/22 08:23:50;;;;;;;6.05;3.13;;;25.80;62.30;;;;;;5056772;28;20366;-73
2023/05/22 08:26:40;;;;;;;5.55;3.28;;;26.20;61.40;;;;;;5056618;28;20223;-72
2023/05/22 08:29:29;;;;;;;6.93;3.45;;;26.70;62.40;;;;;;5062901;28;20228;-72
2023/05/22 08:32:18;;;;;;;8.95;3.42;;;26.80;62.00;;;;;;5059042;28;20273;-73
2023/05/22 08:35:07;;;;;;;4.35;2.90;;;27.10;60.20;;;;;;5052551;28;20848;-72
2023/05/22 08:37:57;;;;;;;6.18;2.78;;;27.40;63.20;;;;;;5067301;28;20768;-74
2023/05/22 08:40:48;;;;;;;5.25;2.90;;;28.00;63.70;;;;;;5070463;28;20753;-72
2023/05/22 08:43:37;;;;;;;5.75;3.10;;;28.40;61.20;;;;;;5068232;28;20671;-74
2023/05/22 08:46:27;;;;;;;7.95;3.08;;;29.00;59.10;;;;;;5062660;28;20224;-71
2023/05/22 08:49:18;;;;;;;6.75;3.28;;;27.30;58.90;;;;;;5070023;28;20224;-73
2023/05/22 08:52:13;;;;;;;6.28;3.25;;;27.10;61.40;;;;;;5068576;28;20224;-72
2023/05/22 08:55:04;;;;;;;4.30;3.05;;;26.60;59.50;;;;;;5061289;28;20561;-72
2023/05/22 08:57:56;;;;;;;8.52;3.40;;;26.60;60.00;;;;;;5066796;28;20219;-73
2023/05/22 09:00:45;;;;;;;4.07;3.28;;;27.20;61.00;;;;;;5071627;28;20236;-72
2023/05/22 09:03:36;;;;;;;4.65;3.22;;;26.30;64.20;;;;;;5059121;28;20240;-73
2023/05/22 09:06:27;;;;;;;5.68;3.25;;;27.50;62.80;;;;;;5065214;28;20700;-72
2023/05/22 09:09:16;;;;;;;8.38;2.90;;;27.10;59.50;;;;;;5058805;28;20232;-72
2023/05/22 09:12:09;;;;;;;5.15;3.10;;;27.50;62.30;;;;;;5050863;28;20220;-73
2023/05/22 09:15:03;;;;;;;7.25;3.00;;;26.90;59.40;;;;;;5026497;28;20230;-73
2023/05/22 09:17:52;;;;;;;8.05;3.47;;;27.20;60.90;;;;;;5056125;28;20303;-73
2023/05/22 09:20:41;;;;;;;5.38;2.92;;;27.50;60.70;;;;;;5065076;28;20699;-73
2023/05/22 09:23:31;;;;;;;4.70;3.33;;;27.30;63.30;;;;;;5064365;28;20715;-72
2023/05/22 09:26:20;;;;;;;5.82;3.45;;;27.60;58.80;;;;;;5063319;28;20642;-72
2023/05/22 09:29:10;;;;;;;8.75;3.63;;;27.10;60.40;;;;;;5061561;28;20425;-74
2023/05/22 09:32:00;;;;;;;3.70;2.97;;;26.70;61.10;;;;;;5066640;28;20219;-73
2023/05/22 09:34:50;;;;;;;5.82;3.20;;;27.10;62.00;;;;;;5061023;28;20629;-73
2023/05/22 09:37:40;;;;;;;8.18;3.20;;;26.80;61.00;;;;;;5058348;28;20723;-72
2023/05/22 09:40:29;;;;;;;5.18;3.25;;;26.80;63.30;;;;;;5066946;28;20820;-72
2023/05/22 09:43:18;;;;;;;6.10;3.15;;;27.30;61.10;;;;;;5063656;28;20444;-71
2023/05/22 09:46:08;;;;;;;6.63;3.10;;;27.90;62.60;;;;;;5049982;28;20546;-72
2023/05/22 09:48:57;;;;;;;5.30;2.90;;;28.50;62.10;;;;;;5065086;28;20311;-72
2023/05/22 09:51:47;;;;;;;4.85;2.97;;;28.00;58.10;;;;;;5076221;28;20871;-73
2023/05/22 09:54:44;;;;;;;3.47;2.88;;;26.90;57.90;;;;;;5057180;28;20288;-72
2023/05/22 09:57:37;;;;;;;2.85;2.58;;;27.10;59.50;;;;;;5051158;28;20235;-72
2023/05/22 10:00:28;;;;;;;5.30;2.67;;;27.20;60.10;;;;;;5038438;28;20286;-72
2023/05/22 10:03:23;;;;;;;6.43;3.13;;;27.10;59.40;;;;;;5053580;28;20632;-73
2023/05/22 10:06:13;;;;;;;7.35;3.30;;;27.40;59.40;;;;;;5058854;28;20224;-72
2023/05/22 10:09:11;;;;;;;6.47;3.42;;;27.20;58.20;;;;;;5059080;28;20221;-73
2023/05/22 10:12:09;;;;;;;7.22;3.30;;;26.60;58.00;;;;;;5061832;28;20314;-73
2023/05/22 10:14:58;;;;;;;5.97;3.22;;;26.60;59.20;;;;;;5069644;28;20229;-73
2023/05/22 10:17:48;;;;;;;5.55;3.20;;;27.00;59.70;;;;;;5078791;28;20231;-72
2023/05/22 10:20:39;;;;;;;5.60;3.08;;;26.70;58.50;;;;;;5063075;28;20235;-72
2023/05/22 10:23:29;;;;;;;13.18;3.70;;;26.10;61.40;;;;;;5060820;28;20224;-72
2023/05/22 10:26:20;;;;;;;5.25;2.97;;;25.80;68.00;;;;;;5065615;28;20228;-73
2023/05/22 10:29:14;;;;;;;6.00;3.50;;;25.40;66.20;;;;;;5064392;28;20328;-73
2023/05/22 10:32:08;;;;;;;4.10;3.00;;;25.10;65.50;;;;;;5050530;28;20228;-73
2023/05/22 10:35:19;;;;;;;6.13;2.92;;;24.90;64.30;;;;;;5043910;28;20232;-73
2023/05/22 10:38:36;;;;;;;5.15;2.95;;;24.90;65.20;;;;;;5036047;28;20236;-72
2023/05/22 10:41:26;;;;;;;4.78;3.05;;;25.10;63.10;;;;;;5074336;28;20359;-73
2023/05/22 10:44:15;;;;;;;6.30;2.90;;;25.40;65.20;;;;;;5084514;28;20277;-73
2023/05/22 10:47:09;;;;;;;4.43;2.88;;;26.60;63.10;;;;;;5073181;28;20245;-74
2023/05/22 10:50:07;;;;;;;4.55;2.85;;;27.70;58.20;;;;;;5076922;28;20234;-73
2023/05/22 10:53:22;;;;;;;5.18;2.70;;;27.70;58.20;;;;;;5081933;28;20919;-74
2023/05/22 10:56:13;;;;;;;4.45;3.25;;;28.50;56.80;;;;;;5081135;28;20223;-73
2023/05/22 10:59:06;;;;;;;4.10;2.72;;;29.60;58.30;;;;;;5078685;28;20293;-73
2023/05/22 11:02:01;;;;;;;6.80;2.95;;;31.30;57.00;;;;;;5084172;27;20634;-73
2023/05/22 11:04:50;;;;;;;3.80;2.75;;;32.80;52.80;;;;;;5074811;28;20262;-73
2023/05/22 11:07:41;;;;;;;10.68;3.58;;;33.90;51.50;;;;;;5078161;28;20219;-74
2023/05/22 11:10:57;;;;;;;3.72;2.70;;;35.70;51.00;;;;;;5084116;28;20223;-74
2023/05/22 11:13:51;;;;;;;7.20;2.88;;;35.90;49.10;;;;;;5067253;28;20230;-74
2023/05/22 11:16:40;;;;;;;4.35;2.95;;;35.20;48.90;;;;;;5080452;28;20250;-74
2023/05/22 11:19:29;;;;;;;7.72;2.25;;;33.80;50.40;;;;;;5078345;28;20252;-74
2023/05/22 11:22:18;;;;;;;5.47;2.67;;;35.60;50.30;;;;;;5073785;28;20227;-74
2023/05/22 11:25:09;;;;;;;3.65;2.60;;;37.90;45.50;;;;;;5080481;28;20219;-74
2023/05/22 11:28:03;;;;;;;4.65;2.35;;;36.30;44.90;;;;;;5069865;28;20299;-74
2023/05/22 11:30:54;;;;;;;5.50;2.30;;;36.30;43.90;;;;;;5080742;28;20211;-74
2023/05/22 11:33:43;;;;;;;5.78;2.33;;;38.10;46.20;;;;;;5077903;28;20238;-73
2023/05/22 11:36:34;;;;;;;6.72;3.17;;;39.40;45.60;;;;;;5076461;28;20678;-73
2023/05/22 11:39:23;;;;;;;4.47;2.75;;;38.60;42.00;;;;;;5070573;28;20601;-74
2023/05/22 11:42:12;;;;;;;7.97;2.38;;;37.60;42.50;;;;;;5075259;28;20232;-74
2023/05/22 11:45:03;;;;;;;3.28;2.42;;;39.30;45.90;;;;;;5079935;28;20215;-74
2023/05/22 11:47:52;;;;;;;4.32;2.42;;;38.80;41.80;;;;;;5077022;28;20310;-74
2023/05/22 11:50:43;;;;;;;6.72;2.85;;;36.30;41.40;;;;;;5082837;28;20705;-73
2023/05/22 11:53:34;;;;;;;4.25;2.10;;;37.10;42.40;;;;;;5081968;28;20757;-74
2023/05/22 11:56:23;;;;;;;8.32;2.45;;;36.40;43.90;;;;;;5079615;28;20761;-74
2023/05/22 11:59:12;;;;;;;10.18;2.70;;;36.00;43.20;;;;;;5069154;28;20323;-74
2023/05/22 12:02:03;;;;;;;5.20;2.50;;;37.70;46.10;;;;;;5078235;28;20226;-74
2023/05/22 12:04:54;;;;;;;6.28;2.75;;;37.70;41.20;;;;;;5082568;28;20559;-73
2023/05/22 12:07:43;;;;;;;7.85;2.65;;;35.40;41.70;;;;;;5072834;28;20310;-73
2023/05/22 12:10:32;;;;;;;5.32;2.45;;;35.30;43.50;;;;;;5071654;28;20273;-74
2023/05/22 12:13:25;;;;;;;6.20;2.53;;;35.90;43.40;;;;;;5077527;28;20250;-75
2023/05/22 12:16:21;;;;;;;4.53;2.90;;;36.60;43.00;;;;;;5081267;28;20227;-74
2023/05/22 12:19:12;;;;;;;5.78;2.30;;;38.10;42.20;;;;;;5079912;28;20305;-75
2023/05/22 12:22:08;;;;;;;6.88;2.55;;;40.30;41.00;;;;;;5077595;28;20760;-74
2023/05/22 12:24:57;;;;;;;2.90;2.38;;;38.20;40.30;;;;;;5082955;28;20291;-74
2023/05/22 12:27:47;;;;;;;3.38;2.80;;;37.10;40.20;;;;;;5082637;28;20222;-74
2023/05/22 12:30:42;;;;;;;5.72;2.47;;;35.80;42.80;;;;;;5072169;28;20230;-74
2023/05/22 12:33:31;;;;;;;4.32;2.28;;;36.60;42.90;;;;;;5077856;28;20649;-73
2023/05/22 12:36:31;;;;;;;9.30;2.60;;;36.30;42.50;;;;;;5072245;28;20238;-73
2023/05/22 12:39:21;;;;;;;6.57;2.80;;;33.70;42.90;;;;;;5080284;28;20219;-74
2023/05/22 12:42:10;;;;;;;7.07;2.65;;;31.90;44.00;;;;;;5063375;28;20215;-74
2023/05/22 12:44:59;;;;;;;3.95;2.38;;;30.60;47.80;;;;;;5076849;28;20314;-74
2023/05/22 12:47:48;;;;;;;4.25;2.33;;;30.10;49.70;;;;;;5077188;28;20211;-74
2023/05/22 12:50:37;;;;;;;4.50;2.80;;;29.60;48.50;;;;;;5072170;28;20639;-74
2023/05/22 12:53:28;;;;;;;6.32;2.60;;;28.90;50.20;;;;;;5075106;28;20769;-73
2023/05/22 12:56:17;;;;;;;5.35;2.72;;;28.70;51.80;;;;;;5072447;28;20548;-73
2023/05/22 12:59:05;;;;;;;3.83;2.90;;;28.10;51.20;;;;;;5071522;28;20622;-75
2023/05/22 13:01:56;;;;;;;6.55;3.08;;;27.90;51.40;;;;;;5077791;28;20701;-74
2023/05/22 13:04:45;;;;;;;4.28;2.80;;;27.20;53.00;;;;;;5076058;28;20259;-73
2023/05/22 13:07:34;;;;;;;5.88;2.72;;;27.20;52.00;;;;;;5071357;28;20226;-73
2023/05/22 13:10:25;;;;;;;3.65;2.40;;;26.50;52.50;;;;;;5074890;28;20228;-73
2023/05/22 13:13:13;;;;;;;4.60;3.20;;;26.30;53.50;;;;;;5071637;28;20228;-73
2023/05/22 13:16:02;;;;;;;5.90;2.70;;;25.60;53.40;;;;;;5084707;28;20243;-73
2023/05/22 13:18:51;;;;;;;2.58;2.35;;;26.00;54.50;;;;;;5078890;28;20250;-74
2023/05/22 13:21:40;;;;;;;13.80;3.22;;;26.20;55.30;;;;;;5087456;28;20223;-73
2023/05/22 13:24:29;;;;;;;3.20;2.90;;;26.30;54.00;;;;;;5072232;28;20231;-73
2023/05/22 13:27:19;;;;;;;4.65;2.95;;;26.00;54.80;;;;;;5074093;28;20262;-74
2023/05/22 13:30:10;;;;;;;3.10;2.80;;;25.90;53.50;;;;;;5076487;28;20285;-74
2023/05/22 13:32:59;;;;;;;4.80;2.55;;;25.70;54.50;;;;;;5082859;28;20246;-73
2023/05/22 13:35:48;;;;;;;3.42;2.97;;;25.70;54.00;;;;;;5071530;28;20223;-73
2023/05/22 13:38:37;;;;;;;4.13;2.55;;;25.50;55.40;;;;;;5086464;28;21132;-73
2023/05/22 13:41:26;;;;;;;4.25;2.78;;;25.70;56.00;;;;;;5069816;28;20245;-73
2023/05/22 13:44:16;;;;;;;4.85;3.05;;;25.70;55.90;;;;;;5083362;28;20231;-73
2023/05/22 13:47:05;;;;;;;3.55;2.63;;;25.50;56.60;;;;;;5077394;28;20908;-74
2023/05/22 13:49:54;;;;;;;4.65;2.75;;;25.40;54.60;;;;;;5078581;28;20232;-73
2023/05/22 13:52:43;;;;;;;4.75;2.83;;;25.50;54.50;;;;;;5087526;28;20357;-73
2023/05/22 13:55:32;;;;;;;5.00;2.53;;;25.20;55.40;;;;;;5085620;28;20250;-73
2023/05/22 13:58:21;;;;;;;3.53;2.97;;;25.20;56.00;;;;;;5083117;28;20227;-73
2023/05/22 14:01:14;;;;;;;5.05;2.60;;;25.30;57.70;;;;;;5087235;28;20368;-74
2023/05/22 14:04:03;;;;;;;5.45;2.80;;;25.20;56.00;;;;;;5086728;28;20239;-73
2023/05/22 14:06:52;;;;;;;4.43;2.58;;;25.20;56.40;;;;;;5087241;28;20803;-73
2023/05/22 14:09:41;;;;;;;3.53;2.40;;;25.20;56.50;;;;;;5078065;28;20591;-72
2023/05/22 14:12:31;;;;;;;3.65;2.97;;;25.30;56.50;;;;;;5084441;28;20219;-73
2023/05/22 14:15:20;;;;;;;5.35;3.08;;;24.80;56.40;;;;;;5075119;28;20231;-73
2023/05/22 14:18:11;;;;;;;4.13;3.10;;;24.90;57.40;;;;;;5078632;28;20521;-74
2023/05/22 14:21:00;;;;;;;4.05;2.83;;;25.00;56.50;;;;;;5085813;28;20222;-73
2023/05/22 14:23:52;;;;;;;5.03;2.95;;;25.00;56.40;;;;;;5087259;28;20223;-72
2023/05/22 14:26:41;;;;;;;4.43;2.58;;;24.90;57.30;;;;;;5085405;28;20215;-73
2023/05/22 14:29:30;;;;;;;7.10;2.95;;;24.80;57.10;;;;;;5061816;28;20236;-73
2023/05/22 14:32:19;;;;;;;3.72;2.92;;;24.60;58.30;;;;;;5065486;28;20231;-73
2023/05/22 14:35:11;;;;;;;4.38;2.75;;;24.50;57.80;;;;;;5077405;28;21024;-74
2023/05/22 14:38:00;;;;;;;6.40;3.28;;;24.60;58.10;;;;;;5081535;28;20788;-72
2023/05/22 14:40:50;;;;;;;5.13;2.67;;;24.60;57.80;;;;;;5080947;28;20273;-73
2023/05/22 14:43:39;;;;;;;6.30;2.55;;;24.40;57.00;;;;;;5080996;28;20639;-73
2023/05/22 14:46:29;;;;;;;6.22;2.80;;;24.30;57.70;;;;;;5072857;28;20227;-73
2023/05/22 14:49:18;;;;;;;3.15;2.60;;;24.40;58.70;;;;;;5075106;28;20235;-73